Time;durP1;ratioP1;P1;durP2;ratioP2;P2;SDS_P1;SDS_P2;PMS_P1;PMS_P2;Temp;Humidity;BMP_temperature;BMP_pressure;BME280_temperature;BME280_humidity;BME280_pressure;Samples;Min_cycle;Max_cycle;Signal;HPM_P1;HPM_P2
2023/01/05 00:00:25;;;;;;;;;;;;;;;15.22;49.07;100025.59;4984718;27;117334;-65
2023/01/05 00:02:51;;;;;;;;;;;;;;;15.23;49.26;100029.91;4971603;27;98028;-65
2023/01/05 00:05:17;;;;;;;;;;;;;;;15.23;49.17;100032.63;4982882;27;128721;-69
2023/01/05 00:07:43;;;;;;;;;;;;;;;15.25;49.34;100036.94;4965569;27;127300;-64
2023/01/05 00:22:29;;;;;;;;;;;;;;;15.25;49.08;100050.50;4964474;27;114287;-64
2023/01/05 00:23:57;;;;;;;;;;;;;;;15.25;49.26;100045.91;4984766;27;98372;-68
2023/01/05 00:26:23;;;;;;;;;;;;;;;15.23;49.21;100061.69;4967084;27;121582;-63
2023/01/05 00:28:49;;;;;;;;;;;;;;;15.21;49.02;100070.16;4982785;27;128493;-64
2023/01/05 00:31:14;;;;;;;;;;;;;;;15.20;49.14;100054.16;4964545;27;117106;-65
2023/01/05 00:33:40;;;;;;;;;;;;;;;15.18;49.03;100083.53;4984678;27;127351;-69
2023/01/05 00:36:09;;;;;;;;;;;;;;;15.15;49.29;100073.28;4983131;27;128952;-69
2023/01/05 00:38:35;;;;;;;;;;;;;;;15.15;49.30;100078.72;4994675;27;99020;-64
2023/01/05 00:41:01;;;;;;;;;;;;;;;15.12;49.12;100071.97;4970242;27;117776;-64
2023/01/05 00:43:27;;;;;;;;;;;;;;;15.11;49.23;100078.50;4965166;27;127877;-65
2023/01/05 00:45:53;;;;;;;;;;;;;;;15.11;49.15;100080.44;4984088;27;127285;-68
2023/01/05 00:48:19;;;;;;;;;;;;;;;15.08;49.12;100073.69;4983877;27;127676;-69
2023/01/05 00:50:48;;;;;;;;;;;;;;;15.09;49.40;100082.63;4964518;27;118865;-64
2023/01/05 00:53:14;;;;;;;;;;;;;;;15.06;49.06;100066.97;4982300;27;114037;-68
2023/01/05 00:55:40;;;;;;;;;;;;;;;15.05;49.36;100071.63;4984599;27;128152;-68
2023/01/05 00:58:05;;;;;;;;;;;;;;;15.04;49.33;100069.19;4965390;27;128225;-68
2023/01/05 01:00:31;;;;;;;;;;;;;;;15.04;49.11;100067.28;4981861;27;116193;-65
2023/01/05 01:02:57;;;;;;;;;;;;;;;15.04;49.20;100069.19;4966715;27;121349;-69
2023/01/05 01:05:23;;;;;;;;;;;;;;;15.04;49.27;100056.41;4964182;27;128861;-66
2023/01/05 01:07:49;;;;;;;;;;;;;;;15.03;49.15;100054.81;4968783;27;126420;-64
2023/01/05 01:10:15;;;;;;;;;;;;;;;15.03;49.19;100054.81;4987387;27;98060;-64
2023/01/05 01:12:41;;;;;;;;;;;;;;;15.04;49.06;100061.03;4967977;27;128470;-64
2023/01/05 01:15:07;;;;;;;;;;;;;;;15.04;49.30;100067.28;5021936;27;127859;-64
2023/01/05 01:17:33;;;;;;;;;;;;;;;15.03;49.21;100057.53;4987025;27;105555;-63
2023/01/05 01:19:59;;;;;;;;;;;;;;;15.03;49.30;100068.38;4971298;27;119330;-63
2023/01/05 01:22:25;;;;;;;;;;;;;;;15.03;49.19;100064.88;4984335;27;117508;-64
2023/01/05 01:24:51;;;;;;;;;;;;;;;15.02;49.32;100058.66;4986969;27;128113;-64
2023/01/05 01:27:17;;;;;;;;;;;;;;;15.03;48.97;100056.72;5004127;27;113103;-70
2023/01/05 01:29:43;;;;;;;;;;;;;;;15.03;49.21;100056.72;4988032;27;97980;-69
2023/01/05 01:32:09;;;;;;;;;;;;;;;15.02;49.31;100060.56;4986306;27;127033;-69
2023/01/05 01:34:35;;;;;;;;;;;;;;;15.02;49.15;100064.06;4969577;27;98063;-64
2023/01/05 01:37:01;;;;;;;;;;;;;;;15.02;49.38;100053.22;4968762;27;126765;-70
2023/01/05 01:39:27;;;;;;;;;;;;;;;15.01;49.37;100048.88;4985651;27;116796;-65
2023/01/05 01:41:53;;;;;;;;;;;;;;;15.02;49.37;100053.22;4987237;27;128224;-65
2023/01/05 01:44:54;;;;;;;;;;;;;;;15.01;49.06;100054.31;4986600;27;127429;-65
2023/01/05 01:48:03;;;;;;;;;;;;;;;15.02;49.36;100055.13;5002084;27;98153;-70
2023/01/05 01:50:42;;;;;;;;;;;;;;;15.01;49.10;100050.78;4985474;27;99394;-69
2023/01/05 01:53:24;;;;;;;;;;;;;;;15.01;49.13;100053.50;4967853;27;98016;-70
2023/01/05 01:55:51;;;;;;;;;;;;;;;15.02;49.22;100045.09;4989716;27;99642;-65
2023/01/05 01:58:17;;;;;;;;;;;;;;;15.01;49.32;100043.44;4969375;27;124544;-65
2023/01/05 02:00:43;;;;;;;;;;;;;;;15.02;49.15;100052.41;5002821;27;115477;-70
2023/01/05 02:03:09;;;;;;;;;;;;;;;15.02;49.12;100041.56;4986325;27;107528;-70
2023/01/05 02:05:36;;;;;;;;;;;;;;;15.02;49.37;100036.13;4967812;27;100351;-65
2023/01/05 02:08:03;;;;;;;;;;;;;;;15.03;49.17;100048.59;4985754;27;99234;-70
2023/01/05 02:10:49;;;;;;;;;;;;;;;15.02;49.30;100028.78;4971555;27;98269;-70
2023/01/05 02:13:50;;;;;;;;;;;;;;;15.04;49.34;100039.34;4989439;27;105879;-70
2023/01/05 02:16:49;;;;;;;;;;;;;;;15.03;49.14;100021.44;5019194;27;98337;-65
2023/01/05 02:19:52;;;;;;;;;;;;;;;15.04;49.36;100023.03;5001801;27;99355;-68
2023/01/05 02:22:28;;;;;;;;;;;;;;;15.04;49.36;100014.91;5020530;27;98101;-70
2023/01/05 02:25:31;;;;;;;;;;;;;;;15.04;49.40;100021.13;4998904;27;124734;-68
2023/01/05 02:28:17;;;;;;;;;;;;;;;15.03;49.26;100005.97;5002076;27;100377;-65
2023/01/05 02:31:07;;;;;;;;;;;;;;;15.04;49.38;100004.06;5005560;27;98410;-65
2023/01/05 02:33:54;;;;;;;;;;;;;;;15.04;49.14;100006.75;4975316;27;98091;-65
2023/01/05 02:36:25;;;;;;;;;;;;;;;15.04;49.38;100014.91;5002568;27;98859;-66
2023/01/05 02:39:12;;;;;;;;;;;;;;;15.04;49.18;100014.91;4986677;27;98166;-70
2023/01/05 02:41:46;;;;;;;;;;;;;;;15.04;49.07;100020.34;4999994;27;99526;-66
2023/01/05 02:44:14;;;;;;;;;;;;;;;15.04;49.16;100017.63;4984957;27;116157;-65
2023/01/05 02:46:40;;;;;;;;;;;;;;;15.04;49.30;100031.19;4968292;27;128411;-65
2023/01/05 02:49:06;;;;;;;;;;;;;;;15.04;49.35;100012.19;4985075;27;127717;-65
2023/01/05 02:51:37;;;;;;;;;;;;;;;15.04;49.37;100017.63;4985945;27;98113;-69
2023/01/05 02:54:09;;;;;;;;;;;;;;;15.03;49.19;100027.69;4986562;27;97917;-69
2023/01/05 02:56:43;;;;;;;;;;;;;;;15.03;49.32;100051.31;4999472;27;121176;-65
2023/01/05 02:59:42;;;;;;;;;;;;;;;15.03;49.21;100038.53;4970048;27;108544;-67
2023/01/05 03:02:14;;;;;;;;;;;;;;;15.04;49.23;100051.00;4968156;27;99357;-67
2023/01/05 03:04:55;;;;;;;;;;;;;;;15.03;49.20;100056.72;4985932;27;110620;-63
2023/01/05 03:07:28;;;;;;;;;;;;;;;15.02;49.17;100080.38;4985036;27;126837;-67
2023/01/05 03:09:54;;;;;;;;;;;;;;;15.02;49.22;100093.13;4968312;27;116102;-67
2023/01/05 03:15:27;;;;;;;;;;;;;;;15.02;49.29;100085.00;4987939;27;98023;-63
2023/01/05 03:17:58;;;;;;;;;;;;;;;15.01;49.38;100088.78;4968942;27;130921;-68
2023/01/05 03:20:25;;;;;;;;;;;;;;;15.01;49.24;100086.06;4969269;27;98459;-67
2023/01/05 03:37:08;;;;;;;;;;;;;;;14.95;49.25;100072.63;5018249;27;97870;-68
2023/01/05 03:39:34;;;;;;;;;;;;;;;14.95;49.42;100074.53;4996645;27;114198;-64
2023/01/05 03:42:00;;;;;;;;;;;;;;;14.94;49.47;100078.38;4967361;27;98116;-64
2023/01/05 03:44:26;;;;;;;;;;;;;;;14.94;49.41;100081.09;4965109;27;126645;-64
2023/01/05 03:46:52;;;;;;;;;;;;;;;14.93;49.21;100066.72;4987900;27;117794;-69
2023/01/05 03:49:18;;;;;;;;;;;;;;;14.93;49.25;100091.16;4966600;27;127555;-69
2023/01/05 03:51:44;;;;;;;;;;;;;;;14.92;49.58;100094.94;4970411;27;104392;-64
2023/01/05 03:54:10;;;;;;;;;;;;;;;14.92;49.23;100099.56;4984723;27;128135;-63
2023/01/05 03:56:36;;;;;;;;;;;;;;;14.91;49.28;100096.06;4985705;27;97932;-68
2023/01/05 03:59:02;;;;;;;;;;;;;;;14.92;49.57;100094.94;4967699;27;98059;-67
2023/01/05 04:01:28;;;;;;;;;;;;;;;14.91;49.55;100096.06;4966308;27;127746;-63
2023/01/05 04:03:53;;;;;;;;;;;;;;;14.91;49.25;100098.78;4982561;27;127151;-63
2023/01/05 04:06:19;;;;;;;;;;;;;;;14.94;49.35;100105.50;4985064;27;116350;-69
2023/01/05 04:08:45;;;;;;;;;;;;;;;15.01;49.78;100115.94;4984823;27;127896;-64
2023/01/05 04:11:15;;;;;;;;;;;;;;;15.08;49.33;100103.56;4982619;27;123571;-67
2023/01/05 04:13:41;;;;;;;;;;;;;;;15.15;49.44;100097.72;4984901;27;97995;-63
2023/01/05 04:16:07;;;;;;;;;;;;;;;15.21;49.28;100104.63;4982232;27;99287;-68
2023/01/05 04:18:33;;;;;;;;;;;;;;;15.25;49.28;100108.34;4967968;27;99556;-67
2023/01/05 04:20:59;;;;;;;;;;;;;;;15.28;49.08;100109.63;4983152;27;98754;-68
2023/01/05 04:23:25;;;;;;;;;;;;;;;15.31;49.37;100107.09;4983242;27;120997;-63
2023/01/05 04:25:51;;;;;;;;;;;;;;;15.35;49.30;100099.94;4967846;27;116882;-64
2023/01/05 04:28:17;;;;;;;;;;;;;;;15.35;49.51;100102.66;5000858;27;128027;-68
2023/01/05 04:30:44;;;;;;;;;;;;;;;15.38;49.54;100101.25;4982327;27;128444;-68
2023/01/05 04:33:10;;;;;;;;;;;;;;;15.39;49.49;100111.00;4981227;27;98681;-64
2023/01/05 04:35:36;;;;;;;;;;;;;;;15.40;49.50;100109.88;4985022;27;98152;-65
2023/01/05 04:38:01;;;;;;;;;;;;;;;15.40;49.53;100104.44;4967852;27;130136;-65
2023/01/05 04:40:27;;;;;;;;;;;;;;;15.40;49.36;100105.25;4983537;27;128132;-68
2023/01/05 04:42:53;;;;;;;;;;;;;;;15.41;49.26;100109.59;5002183;27;125060;-69
2023/01/05 04:45:19;;;;;;;;;;;;;;;15.41;49.54;100100.66;4968840;27;117026;-70
2023/01/05 04:47:45;;;;;;;;;;;;;;;15.40;49.44;100110.69;4967531;27;127221;-65
2023/01/05 04:50:11;;;;;;;;;;;;;;;15.41;49.55;100100.66;4970103;27;98048;-68
2023/01/05 04:52:37;;;;;;;;;;;;;;;15.40;49.40;100101.72;4969932;27;108757;-65
2023/01/05 04:55:03;;;;;;;;;;;;;;;15.41;49.33;100111.50;4968784;27;97997;-68
2023/01/05 04:57:29;;;;;;;;;;;;;;;15.40;49.22;100104.44;4973923;27;121533;-65
2023/01/05 04:59:55;;;;;;;;;;;;;;;15.39;49.50;100111.00;4986271;27;128548;-68
2023/01/05 05:02:21;;;;;;;;;;;;;;;15.39;49.47;100113.72;4986797;27;127543;-69
2023/01/05 05:04:47;;;;;;;;;;;;;;;15.39;49.20;100108.28;4983815;27;109559;-65
2023/01/05 05:07:13;;;;;;;;;;;;;;;15.37;49.55;100105.88;5004146;27;107889;-70
2023/01/05 05:09:39;;;;;;;;;;;;;;;15.37;49.39;100105.09;4986444;27;99853;-70
2023/01/05 05:12:05;;;;;;;;;;;;;;;15.37;49.50;100110.53;4972277;27;124242;-65
2023/01/05 05:14:31;;;;;;;;;;;;;;;15.35;49.41;100112.72;5003791;27;99596;-70
2023/01/05 05:16:57;;;;;;;;;;;;;;;15.34;49.53;100111.13;4987124;27;130305;-65
2023/01/05 05:19:23;;;;;;;;;;;;;;;15.34;49.51;100122.00;5004353;27;99368;-65
2023/01/05 05:21:49;;;;;;;;;;;;;;;15.34;49.39;100116.56;4969965;27;127288;-65
2023/01/05 05:24:14;;;;;;;;;;;;;;;15.32;49.55;100119.56;4985757;27;116890;-65
2023/01/05 05:26:40;;;;;;;;;;;;;;;15.32;49.38;100114.13;4965677;27;127535;-69
2023/01/05 05:29:06;;;;;;;;;;;;;;;15.31;49.48;100131.53;4985615;27;127746;-70
2023/01/05 05:31:32;;;;;;;;;;;;;;;15.30;49.44;100129.94;5003410;27;127972;-64
2023/01/05 05:33:58;;;;;;;;;;;;;;;15.30;49.55;100132.66;4985684;27;115378;-66
2023/01/05 05:36:24;;;;;;;;;;;;;;;15.29;49.47;100130.22;4971509;27;98445;-69
2023/01/05 05:38:50;;;;;;;;;;;;;;;15.28;49.38;100131.34;4972124;27;118741;-66
2023/01/05 05:41:16;;;;;;;;;;;;;;;15.27;49.38;100122.41;5002792;27;116217;-70
2023/01/05 05:43:42;;;;;;;;;;;;;;;15.27;49.37;100127.03;4970317;27;118059;-66
2023/01/05 05:46:08;;;;;;;;;;;;;;;15.26;49.48;100134.38;4968714;27;128427;-69
2023/01/05 05:48:34;;;;;;;;;;;;;;;15.26;49.48;100136.28;4966766;27;99950;-70
2023/01/05 05:51:00;;;;;;;;;;;;;;;15.25;49.46;100140.09;4988399;27;117294;-65
2023/01/05 05:53:26;;;;;;;;;;;;;;;15.25;49.51;100134.66;5001118;27;117837;-69
2023/01/05 05:55:51;;;;;;;;;;;;;;;15.25;49.36;100137.38;4984221;27;127461;-70
2023/01/05 05:58:18;;;;;;;;;;;;;;;15.23;49.37;100140.41;4983932;27;128283;-70
2023/01/05 06:00:44;;;;;;;;;;;;;;;15.22;49.31;100136.91;4986167;27;98508;-65
2023/01/05 06:03:10;;;;;;;;;;;;;;;15.21;49.65;100151.59;4986801;27;109002;-68
2023/01/05 06:05:36;;;;;;;;;;;;;;;15.21;49.33;100148.88;4967553;27;129778;-69
2023/01/05 06:08:02;;;;;;;;;;;;;;;15.20;49.53;100147.25;4969596;27;102879;-65
2023/01/05 06:10:27;;;;;;;;;;;;;;;15.20;49.29;100154.59;4987269;27;111759;-68
2023/01/05 06:12:54;;;;;;;;;;;;;;;15.19;49.55;100156.50;5002892;27;117420;-65
2023/01/05 06:15:20;;;;;;;;;;;;;;;15.19;49.66;100147.56;4969592;27;99653;-68
2023/01/05 06:17:47;;;;;;;;;;;;;;;15.19;49.38;100161.13;4985382;27;97997;-65
2023/01/05 06:20:13;;;;;;;;;;;;;;;15.18;49.46;100159.53;4969938;27;99306;-68
2023/01/05 06:22:39;;;;;;;;;;;;;;;15.17;49.56;100161.47;4982245;27;98104;-65
2023/01/05 06:25:05;;;;;;;;;;;;;;;15.17;49.43;100161.47;4970171;27;132056;-69
2023/01/05 06:27:31;;;;;;;;;;;;;;;15.16;49.63;100167.97;4968134;27;121111;-68
2023/01/05 06:29:57;;;;;;;;;;;;;;;15.16;49.62;100159.84;4983315;27;126546;-64
2023/01/05 06:32:23;;;;;;;;;;;;;;;15.16;49.63;100165.25;4980034;27;116895;-65
2023/01/05 06:34:49;;;;;;;;;;;;;;;15.15;49.34;100166.38;4981554;27;127670;-69
2023/01/05 06:37:15;;;;;;;;;;;;;;;15.15;49.64;100171.81;4968993;27;99342;-70
2023/01/05 06:39:41;;;;;;;;;;;;;;;15.15;49.37;100174.50;4996389;27;127436;-69
2023/01/05 06:42:07;;;;;;;;;;;;;;;15.15;49.37;100182.66;4996355;27;110674;-64
2023/01/05 06:44:33;;;;;;;;;;;;;;;15.15;49.42;100174.50;4982402;27;127817;-68
2023/01/05 06:46:58;;;;;;;;;;;;;;;15.14;49.34;100177.56;4998945;27;127069;-64
2023/01/05 06:49:24;;;;;;;;;;;;;;;15.15;49.56;100179.94;4982892;27;103185;-69
2023/01/05 06:51:50;;;;;;;;;;;;;;;15.14;49.56;100186.50;4983199;27;97981;-65
2023/01/05 06:54:16;;;;;;;;;;;;;;;15.13;49.36;100187.59;4982210;27;127102;-64
2023/01/05 06:56:42;;;;;;;;;;;;;;;15.14;49.57;100182.97;4999581;27;128045;-70
2023/01/05 06:59:09;;;;;;;;;;;;;;;15.13;49.64;100186.78;4980518;27;127775;-68
2023/01/05 07:01:35;;;;;;;;;;;;;;;15.13;49.43;100190.31;4967596;27;98765;-65
2023/01/05 07:04:01;;;;;;;;;;;;;;;15.14;49.33;100199.25;4981951;27;111208;-65
2023/01/05 07:06:27;;;;;;;;;;;;;;;15.13;49.38;100197.63;4983231;27;127271;-69
2023/01/05 07:08:53;;;;;;;;;;;;;;;15.12;49.65;100198.75;4979262;27;127168;-65
2023/01/05 07:11:19;;;;;;;;;;;;;;;15.13;49.65;100195.75;4964941;27;117013;-66
2023/01/05 07:13:49;;;;;;;;;;;;;;;15.13;49.71;100208.50;4983391;27;127192;-66
2023/01/05 07:16:15;;;;;;;;;;;;;;;15.13;49.47;100205.78;4982509;27;99985;-65
2023/01/05 07:18:41;;;;;;;;;;;;;;;15.14;49.41;100207.41;4966201;27;97979;-66
2023/01/05 07:21:07;;;;;;;;;;;;;;;15.13;49.58;100208.50;4980251;27;104126;-69
2023/01/05 07:23:36;;;;;;;;;;;;;;;15.14;49.52;100213.63;4979661;27;128203;-66
2023/01/05 07:26:03;;;;;;;;;;;;;;;15.13;49.56;100212.03;4982949;27;98090;-65
2023/01/05 07:28:28;;;;;;;;;;;;;;;15.13;49.36;100224.78;4963726;27;121044;-65
2023/01/05 07:30:54;;;;;;;;;;;;;;;15.14;49.58;100224.50;4998310;27;102097;-65
2023/01/05 07:33:20;;;;;;;;;;;;;;;15.14;49.38;100229.94;4981187;27;128113;-68
2023/01/05 07:35:46;;;;;;;;;;;;;;;15.14;49.42;100229.13;4980476;27;128716;-69
2023/01/05 07:38:12;;;;;;;;;;;;;;;15.15;49.49;100234.25;4981510;27;127853;-65
2023/01/05 07:40:38;;;;;;;;;;;;;;;15.16;49.38;100243.97;4982680;27;98101;-65
2023/01/05 07:43:04;;;;;;;;;;;;;;;15.17;49.57;100242.09;4981277;27;129242;-65
2023/01/05 07:45:30;;;;;;;;;;;;;;;15.17;49.56;100245.63;4965324;27;127559;-66
2023/01/05 07:47:56;;;;;;;;;;;;;;;15.18;49.53;100246.41;4979264;27;101034;-65
2023/01/05 07:50:22;;;;;;;;;;;;;;;15.18;49.38;100249.94;4981276;27;108176;-66
2023/01/05 07:52:48;;;;;;;;;;;;;;;15.20;49.54;100253.13;4965580;27;128226;-65
2023/01/05 07:55:14;;;;;;;;;;;;;;;15.21;49.24;100246.63;4983962;27;127075;-65
2023/01/05 07:57:40;;;;;;;;;;;;;;;15.22;49.38;100253.66;4968620;27;98048;-69
2023/01/05 08:00:06;;;;;;;;;;;;;;;15.24;49.30;100272.34;4977648;27;104899;-64
2023/01/05 08:02:32;;;;;;;;;;;;;;;15.25;49.45;100270.41;4965570;27;99811;-65
2023/01/05 08:04:58;;;;;;;;;;;;;;;15.26;49.19;100269.34;4965595;27;98173;-65
2023/01/05 08:07:24;;;;;;;;;;;;;;;15.28;49.34;100264.38;4995263;27;128398;-65
2023/01/05 08:13:58;;;;;;;;;;;;;;;15.31;49.34;100274.66;4997312;27;98527;-65
2023/01/05 08:15:21;;;;;;;;;;;;;;;15.32;49.43;100279.78;4986588;27;98290;-69
2023/01/05 08:17:47;;;;;;;;;;;;;;;15.32;49.44;100287.13;4965683;27;98192;-69
2023/01/05 08:20:12;;;;;;;;;;;;;;;15.31;49.30;100297.19;4964219;27;98317;-64
2023/01/05 08:22:38;;;;;;;;;;;;;;;15.31;49.36;100293.66;4962703;27;127593;-68
2023/01/05 08:25:05;;;;;;;;;;;;;;;15.34;49.34;100295.78;4980220;27;128472;-65
2023/01/05 08:27:31;;;;;;;;;;;;;;;15.36;49.12;100297.06;4995736;27;117223;-65
2023/01/05 08:29:56;;;;;;;;;;;;;;;15.38;49.39;100307.66;4982397;27;99016;-65
2023/01/05 08:32:22;;;;;;;;;;;;;;;15.40;49.29;100313.56;4998140;27;98838;-65
2023/01/05 08:34:48;;;;;;;;;;;;;;;15.41;49.22;100304.31;4996303;27;128001;-68
2023/01/05 08:37:14;;;;;;;;;;;;;;;15.41;49.16;100320.63;4979338;27;127063;-71
2023/01/05 08:39:40;;;;;;;;;;;;;;;15.41;49.16;100307.03;4979621;27;98089;-70
2023/01/05 08:42:06;;;;;;;;;;;;;;;15.39;49.34;100307.31;4981140;27;98353;-65
2023/01/05 08:44:32;;;;;;;;;;;;;;;15.37;49.39;100315.00;4968119;27;130507;-65
2023/01/05 08:46:58;;;;;;;;;;;;;;;15.38;49.49;100315.78;4961406;27;127179;-66
2023/01/05 08:49:24;;;;;;;;;;;;;;;15.39;49.37;100315.47;4978707;27;98138;-66
2023/01/05 08:51:50;;;;;;;;;;;;;;;15.40;49.23;100327.13;4980924;27;126984;-70
2023/01/05 08:54:16;;;;;;;;;;;;;;;15.42;49.20;100331.16;4963661;27;116421;-65
2023/01/05 08:56:43;;;;;;;;;;;;;;;15.41;49.31;100329.56;4979663;27;127047;-64
2023/01/05 08:59:11;;;;;;;;;;;;;;;15.43;49.37;100338.22;4968878;27;99717;-65
2023/01/05 09:01:37;;;;;;;;;;;;;;;15.44;49.18;100337.13;4965058;27;98687;-69
2023/01/05 09:04:03;;;;;;;;;;;;;;;15.55;49.12;100347.75;4963196;27;126274;-67
2023/01/05 09:06:29;;;;;;;;;;;;;;;15.52;49.11;100351.06;4963868;27;107416;-64
2023/01/05 09:08:55;;;;;;;;;;;;;;;15.52;49.29;100354.59;4979584;27;98748;-69
2023/01/05 09:11:22;;;;;;;;;;;;;;;15.65;49.06;100347.59;4980961;27;98190;-66
2023/01/05 09:13:50;;;;;;;;;;;;;;;15.76;49.00;100346.28;4981235;27;98957;-64
2023/01/05 09:16:18;;;;;;;;;;;;;;;15.71;48.95;100357.22;4980057;27;111793;-69
2023/01/05 09:18:44;;;;;;;;;;;;;;;15.68;49.04;100366.81;4965247;27;98154;-63
2023/01/05 09:21:11;;;;;;;;;;;;;;;15.64;49.15;100376.66;4980933;27;98596;-63
2023/01/05 09:23:37;;;;;;;;;;;;;;;15.68;49.25;100368.72;4963502;27;98030;-67
2023/01/05 09:26:04;;;;;;;;;;;;;;;15.75;48.93;100360.16;4981696;27;98152;-64
2023/01/05 09:28:30;;;;;;;;;;;;;;;15.81;49.10;100380.69;4978452;27;104754;-64
2023/01/05 09:30:56;;;;;;;;;;;;;;;15.77;49.19;100387.84;4967378;27;97961;-69
2023/01/05 09:33:22;;;;;;;;;;;;;;;15.80;49.13;100384.47;4966164;27;127776;-66
2023/01/05 09:35:57;;;;;;;;;;;;;;;15.87;49.04;100382.97;4999526;27;108483;-65
2023/01/05 09:38:23;;;;;;;;;;;;;;;15.91;49.15;100385.88;4984417;27;98356;-65
2023/01/05 09:40:50;;;;;;;;;;;;;;;16.09;48.75;100381.44;4985309;27;98320;-65
2023/01/05 09:43:30;;;;;;;;;;;;;;;16.17;48.63;100376.06;4984184;27;98238;-69
2023/01/05 09:45:56;;;;;;;;;;;;;;;16.06;48.85;100380.13;4984542;27;121424;-67
2023/01/05 09:48:22;;;;;;;;;;;;;;;16.05;48.83;100383.16;5001084;27;117720;-65
2023/01/05 09:50:48;;;;;;;;;;;;;;;16.10;48.82;100392.00;4984851;27;117732;-69
2023/01/05 09:53:15;;;;;;;;;;;;;;;16.39;48.57;100388.09;4966425;27;118470;-65
2023/01/05 09:55:41;;;;;;;;;;;;;;;16.64;48.14;100383.94;4948017;27;126536;-65
2023/01/05 09:58:13;;;;;;;;;;;;;;;16.72;48.33;100390.56;4964619;27;98263;-65
2023/01/05 10:00:43;;;;;;;;;;;;;;;16.64;48.56;100403.81;4965588;27;98294;-68
2023/01/05 10:03:20;;;;;;;;;;;;;;;16.73;48.48;100393.00;4952039;27;120910;-69
2023/01/05 10:05:46;;;;;;;;;;;;;;;16.82;48.38;100401.22;4946344;27;98600;-69
2023/01/05 10:08:22;;;;;;;;;;;;;;;16.88;48.40;100398.06;4967132;27;97867;-65
2023/01/05 10:13:42;;;;;;;;;;;;;;;16.87;48.43;100399.19;4969459;27;98144;-68
2023/01/05 10:16:09;;;;;;;;;;;;;;;16.82;48.52;100395.78;4951331;27;122047;-65
2023/01/05 10:18:36;;;;;;;;;;;;;;;16.83;48.54;100390.03;4964465;27;98086;-65
2023/01/05 10:21:21;;;;;;;;;;;;;;;16.81;48.77;100378.63;4963157;27;98941;-65
2023/01/05 10:24:31;;;;;;;;;;;;;;;16.77;48.71;100390.47;4982630;27;98132;-68
2023/01/05 10:27:18;;;;;;;;;;;;;;;16.77;48.69;100394.00;4977121;27;112295;-66
2023/01/05 10:29:45;;;;;;;;;;;;;;;16.73;48.82;100398.44;4975847;27;99357;-68
2023/01/05 10:32:21;;;;;;;;;;;;;;;16.65;48.96;100401.88;4949101;27;98842;-65
2023/01/05 10:35:03;;;;;;;;;;;;;;;16.71;48.82;100387.03;4962056;27;117541;-64
2023/01/05 10:37:47;;;;;;;;;;;;;;;16.66;48.77;100387.16;4951425;27;99516;-64
2023/01/05 10:40:19;;;;;;;;;;;;;;;16.66;48.89;100384.44;4977970;27;98087;-65
2023/01/05 10:43:20;;;;;;;;;;;;;;;16.70;48.85;100390.88;4997285;27;98171;-69
2023/01/05 10:45:46;;;;;;;;;;;;;;;16.62;49.04;100387.00;4966272;27;111989;-65
2023/01/05 10:48:16;;;;;;;;;;;;;;;16.55;49.03;100391.25;4964336;27;125603;-68
2023/01/05 10:50:43;;;;;;;;;;;;;;;16.50;48.90;100391.38;4943093;27;99013;-64
2023/01/05 10:53:09;;;;;;;;;;;;;;;16.46;48.85;100404.78;4963544;27;106543;-67
2023/01/05 10:55:54;;;;;;;;;;;;;;;16.40;49.18;100409.53;5018415;27;98411;-67
2023/01/05 10:58:24;;;;;;;;;;;;;;;16.33;49.10;100408.34;4980133;27;98206;-63
2023/01/05 11:00:51;;;;;;;;;;;;;;;16.26;49.08;100406.03;4981444;27;98318;-62
2023/01/05 11:03:17;;;;;;;;;;;;;;;16.20;49.31;100407.28;4901058;27;99313;-63
2023/01/05 11:05:48;;;;;;;;;;;;;;;16.20;49.14;100421.69;4985932;27;119157;-68
2023/01/05 11:08:16;;;;;;;;;;;;;;;16.17;49.28;100418.78;4985550;27;99053;-63
2023/01/05 11:10:56;;;;;;;;;;;;;;;16.15;49.13;100421.81;4990236;27;98055;-67
2023/01/05 11:13:29;;;;;;;;;;;;;;;16.13;49.15;100409.63;4993272;27;115174;-63
2023/01/05 11:16:11;;;;;;;;;;;;;;;16.10;49.22;100421.09;4982219;27;98256;-66
2023/01/05 11:18:53;;;;;;;;;;;;;;;16.05;49.23;100426.66;4981212;27;98208;-63
2023/01/05 11:21:45;;;;;;;;;;;;;;;16.02;49.31;100419.91;5002116;27;99406;-66
2023/01/05 11:24:23;;;;;;;;;;;;;;;15.98;49.30;100429.78;4983246;27;98654;-66
2023/01/05 11:26:50;;;;;;;;;;;;;;;15.96;49.36;100440.16;4993216;27;98136;-67
2023/01/05 11:29:17;;;;;;;;;;;;;;;15.95;49.22;100424.94;4984780;27;120105;-63
2023/01/05 11:31:44;;;;;;;;;;;;;;;15.91;49.19;100432.09;4971703;27;98966;-67
2023/01/05 11:34:36;;;;;;;;;;;;;;;15.89;49.38;100437.84;4994814;27;98464;-63
2023/01/05 11:37:25;;;;;;;;;;;;;;;16.03;49.21;100437.81;4987700;27;100055;-66
2023/01/05 11:39:58;;;;;;;;;;;;;;;16.09;49.10;100438.53;4981326;27;113760;-63
2023/01/05 11:42:24;;;;;;;;;;;;;;;16.16;48.86;100447.88;4986032;27;97978;-64
2023/01/05 11:44:54;;;;;;;;;;;;;;;16.64;48.29;100455.50;5016836;27;100696;-67
2023/01/05 11:47:26;;;;;;;;;;;;;;;16.64;48.45;100449.25;4966170;27;98042;-65
2023/01/05 11:49:59;;;;;;;;;;;;;;;16.57;48.71;100467.94;4983653;27;99757;-65
2023/01/05 11:52:49;;;;;;;;;;;;;;;16.54;48.75;100480.22;4979676;27;98024;-65
2023/01/05 11:55:35;;;;;;;;;;;;;;;16.55;48.96;100467.44;4991585;27;99427;-69
2023/01/05 11:58:12;;;;;;;;;;;;;;;16.52;48.88;100468.84;4993813;27;98435;-65
2023/01/05 12:01:00;;;;;;;;;;;;;;;16.48;49.03;100462.41;4990605;27;98907;-67
2023/01/05 12:03:55;;;;;;;;;;;;;;;16.40;49.05;100480.25;4987899;27;98218;-69
2023/01/05 12:06:47;;;;;;;;;;;;;;;16.34;49.08;100477.94;4978836;27;121647;-66
2023/01/05 12:09:24;;;;;;;;;;;;;;;16.47;49.03;100479.06;4961941;27;99718;-69
2023/01/05 12:12:05;;;;;;;;;;;;;;;16.50;48.85;100487.38;4973976;27;98255;-66
2023/01/05 12:14:49;;;;;;;;;;;;;;;16.42;48.91;100494.34;4988360;27;98013;-68
2023/01/05 12:17:19;;;;;;;;;;;;;;;16.45;48.96;100488.31;4990770;27;98261;-66
2023/01/05 12:20:02;;;;;;;;;;;;;;;16.43;49.01;100498.69;4992799;27;114532;-70
2023/01/05 12:22:47;;;;;;;;;;;;;;;16.54;48.85;100493.00;4994385;27;100092;-66
2023/01/05 12:25:30;;;;;;;;;;;;;;;16.61;48.68;100499.66;4993358;27;98612;-68
2023/01/05 12:28:07;;;;;;;;;;;;;;;16.75;48.66;100504.28;4960348;27;99547;-70
2023/01/05 12:31:02;;;;;;;;;;;;;;;16.84;48.59;100497.00;4990224;27;100672;-68
2023/01/05 12:33:52;;;;;;;;;;;;;;;16.90;48.48;100510.19;4975140;27;124927;-66
2023/01/05 12:36:30;;;;;;;;;;;;;;;16.88;48.58;100512.41;5009048;27;98184;-65
2023/01/05 12:39:22;;;;;;;;;;;;;;;16.90;48.56;100514.84;4960036;27;125942;-66
2023/01/05 12:42:11;;;;;;;;;;;;;;;16.89;48.79;100513.19;4992176;27;123076;-66
2023/01/05 12:45:15;;;;;;;;;;;;;;;16.74;49.08;100514.38;4892295;27;119374;-66
2023/01/05 12:48:15;;;;;;;;;;;;;;;16.69;48.94;100525.34;4972282;27;109270;-66
2023/01/05 12:50:46;;;;;;;;;;;;;;;16.67;49.30;100524.84;4977441;27;98319;-66
2023/01/05 12:53:21;;;;;;;;;;;;;;;16.61;49.04;100532.31;4977159;27;123276;-69
2023/01/05 12:55:52;;;;;;;;;;;;;;;16.56;49.16;100539.78;4991549;27;121728;-66
2023/01/05 12:58:37;;;;;;;;;;;;;;;16.54;49.14;100547.44;4962752;27;111731;-66
2023/01/05 13:01:04;;;;;;;;;;;;;;;16.48;49.12;100549.47;4977053;27;100210;-69
2023/01/05 13:03:39;;;;;;;;;;;;;;;16.48;49.21;100556.84;4977776;27;127570;-70
2023/01/05 13:06:19;;;;;;;;;;;;;;;16.49;49.08;100550.28;4974056;27;114952;-66
2023/01/05 13:08:54;;;;;;;;;;;;;;;16.39;49.27;100543.94;4979512;27;98141;-68
2023/01/05 13:11:35;;;;;;;;;;;;;;;16.35;49.42;100553.81;4091812;27;10000950;-69
2023/01/05 13:14:17;;;;;;;;;;;;;;;16.26;49.43;100561.06;4964618;27;104896;-66
2023/01/05 13:16:46;;;;;;;;;;;;;;;16.20;49.48;100546.78;4998367;27;113107;-66
2023/01/05 13:19:24;;;;;;;;;;;;;;;16.17;49.35;100549.28;4979362;27;104565;-66
2023/01/05 13:21:50;;;;;;;;;;;;;;;16.17;49.46;100552.00;4977033;27;108866;-69